createdAt,value
2017-07-08T00:02:32.022Z,4
2017-07-08T00:12:32.228Z,4
2017-07-08T00:22:32.020Z,4
2017-07-08T00:32:32.006Z,4
2017-07-08T00:42:32.078Z,4
2017-07-08T00:52:32.075Z,4
2017-07-08T01:02:32.052Z,4
2017-07-08T01:12:32.240Z,4
2017-07-08T01:22:32.151Z,4
2017-07-08T01:32:32.043Z,4
2017-07-08T01:42:32.015Z,4
2017-07-08T01:52:31.949Z,4
2017-07-08T02:02:32.028Z,4
2017-07-08T02:12:32.052Z,4
2017-07-08T02:22:32.033Z,0
2017-07-08T02:32:32.065Z,4
2017-07-08T02:42:31.998Z,4
2017-07-08T02:52:32.089Z,20
2017-07-08T03:02:32.043Z,60
2017-07-08T03:12:31.929Z,148
2017-07-08T03:22:32.030Z,256
2017-07-08T03:32:31.985Z,420
2017-07-08T03:42:32.030Z,628
2017-07-08T03:52:32.116Z,1012
2017-07-08T04:02:32.107Z,1872
2017-07-08T04:12:32.114Z,2484
2017-07-08T04:22:32.263Z,4692
2017-07-08T04:32:32.156Z,5860
2017-07-08T04:42:32.060Z,4512
2017-07-08T04:52:31.972Z,6136
2017-07-08T05:02:32.026Z,12036
2017-07-08T05:12:31.994Z,13640
2017-07-08T05:22:32.020Z,8864
2017-07-08T05:32:32.059Z,5784
2017-07-08T05:42:31.946Z,7760
2017-07-08T05:52:32.028Z,7000
2017-07-08T06:02:32.062Z,6844
2017-07-08T06:12:31.962Z,8220
2017-07-08T06:22:31.996Z,9404
2017-07-08T06:32:32.072Z,10440
2017-07-08T06:42:32.040Z,23168
2017-07-08T06:52:31.980Z,16524
2017-07-08T07:02:32.111Z,17512
2017-07-08T07:12:32.058Z,25952
2017-07-08T07:22:31.968Z,19072
2017-07-08T07:32:32.085Z,17496
2017-07-08T07:42:32.008Z,17104
2017-07-08T07:52:32.063Z,19488
2017-07-08T08:02:32.077Z,33120
2017-07-08T08:12:31.999Z,16760
2017-07-08T08:22:32.065Z,38272
2017-07-08T08:32:35.699Z,38496
2017-07-08T08:42:32.073Z,20160
2017-07-08T08:52:32.070Z,17696
2017-07-08T09:02:32.058Z,25728
2017-07-08T09:12:32.227Z,25120
2017-07-08T09:22:31.987Z,23072
2017-07-08T09:32:32.106Z,17864
2017-07-08T09:42:31.967Z,21632
2017-07-08T09:52:31.994Z,23616
2017-07-08T10:02:32.084Z,24480
2017-07-08T10:12:31.972Z,22784
2017-07-08T10:22:31.987Z,23296
2017-07-08T10:32:32.007Z,23904
2017-07-08T10:42:31.994Z,22912
2017-07-08T10:52:31.986Z,22272
2017-07-08T11:02:32.015Z,14892
2017-07-08T11:12:32.016Z,17232
2017-07-08T11:22:32.036Z,15240
2017-07-08T11:32:31.998Z,15000
2017-07-08T11:42:32.005Z,15736
2017-07-08T11:52:32.028Z,19040
2017-07-08T12:02:32.023Z,18592
2017-07-08T12:12:32.004Z,17404
2017-07-08T12:22:32.007Z,17804
2017-07-08T12:32:32.064Z,12196
2017-07-08T12:42:32.099Z,12064
2017-07-08T12:52:32.037Z,14452
2017-07-08T13:02:32.059Z,10972
2017-07-08T13:12:32.141Z,15548
2017-07-08T13:22:32.032Z,15960
2017-07-08T13:32:32.146Z,13576
2017-07-08T13:42:32.085Z,14776
2017-07-08T13:52:32.024Z,15960
2017-07-08T14:02:32.104Z,13052
2017-07-08T14:12:32.075Z,16192
2017-07-08T14:22:32.064Z,14860
2017-07-08T14:32:32.044Z,7260
2017-07-08T14:42:32.118Z,9380
2017-07-08T14:52:32.081Z,8380
2017-07-08T15:02:32.101Z,11572
2017-07-08T15:12:32.131Z,8568
2017-07-08T15:22:32.061Z,7952
2017-07-08T15:32:32.064Z,9152
2017-07-08T15:42:32.125Z,7720
2017-07-08T15:52:32.096Z,8380
2017-07-08T16:02:32.086Z,9960
2017-07-08T16:12:32.099Z,8844
2017-07-08T16:22:32.182Z,7876
2017-07-08T16:32:32.230Z,6876
2017-07-08T16:42:32.108Z,6860
2017-07-08T16:52:32.251Z,4304
2017-07-08T17:02:32.102Z,6264
2017-07-08T17:12:32.095Z,3600
2017-07-08T17:22:32.099Z,2336
2017-07-08T17:32:32.097Z,3912
2017-07-08T17:42:32.115Z,3472
2017-07-08T17:52:32.135Z,2888
2017-07-08T18:02:32.138Z,1780
2017-07-08T18:12:32.129Z,2204
2017-07-08T18:22:32.137Z,2308
2017-07-08T18:32:32.131Z,1928
2017-07-08T18:42:32.103Z,1964
2017-07-08T18:52:32.194Z,1528
2017-07-08T19:02:32.124Z,1124
2017-07-08T19:12:32.109Z,800
2017-07-08T19:22:32.133Z,540
2017-07-08T19:32:32.163Z,284
2017-07-08T19:42:32.123Z,128
2017-07-08T19:52:32.107Z,88
2017-07-08T20:02:32.114Z,40
2017-07-08T20:12:32.135Z,12
2017-07-08T20:22:32.145Z,4
2017-07-08T20:32:32.213Z,4
2017-07-08T20:42:32.136Z,0
2017-07-08T20:52:32.134Z,0
2017-07-08T21:02:32.124Z,4
2017-07-08T21:12:32.121Z,0
2017-07-08T21:22:32.124Z,0
2017-07-08T21:32:32.132Z,0
2017-07-08T21:42:32.143Z,0
2017-07-08T21:52:32.185Z,0
2017-07-08T22:02:32.154Z,0
2017-07-08T22:12:32.307Z,0
2017-07-08T22:22:32.216Z,0
2017-07-08T22:32:32.162Z,0
2017-07-08T22:42:32.205Z,0
2017-07-08T22:52:32.170Z,0
2017-07-08T23:02:32.246Z,0
2017-07-08T23:12:32.331Z,0
2017-07-08T23:22:32.143Z,0
2017-07-08T23:32:32.254Z,0
2017-07-08T23:42:32.178Z,0
2017-07-08T23:52:32.525Z,0
